sensor_id;sensor_type;location;lat;lon;timestamp;temperature;humidity
25050;DHT22;13046;49.814;9.918;2023-02-27T09:44:20;2.40;99.90
25050;DHT22;13046;49.814;9.918;2023-02-27T09:46:48;2.50;99.90
25050;DHT22;13046;49.814;9.918;2023-02-27T09:49:16;2.70;99.90
25050;DHT22;13046;49.814;9.918;2023-02-27T10:13:02;2.60;99.90
25050;DHT22;13046;49.814;9.918;2023-02-27T10:15:33;3.10;99.90
25050;DHT22;13046;49.814;9.918;2023-02-27T10:18:11;3.50;99.90
25050;DHT22;13046;49.814;9.918;2023-02-27T10:20:49;3.70;99.90
25050;DHT22;13046;49.814;9.918;2023-02-27T10:23:18;3.10;99.90
25050;DHT22;13046;49.814;9.918;2023-02-27T10:25:48;2.80;99.90
25050;DHT22;13046;49.814;9.918;2023-02-27T10:28:17;3.40;99.90
25050;DHT22;13046;49.814;9.918;2023-02-27T10:30:48;3.70;99.90
25050;DHT22;13046;49.814;9.918;2023-02-27T10:33:37;4.20;99.90
25050;DHT22;13046;49.814;9.918;2023-02-27T10:36:04;3.90;99.90
25050;DHT22;13046;49.814;9.918;2023-02-27T10:38:58;3.90;99.90
25050;DHT22;13046;49.814;9.918;2023-02-27T10:41:26;3.90;99.90
25050;DHT22;13046;49.814;9.918;2023-02-27T10:43:56;4.00;99.90
25050;DHT22;13046;49.814;9.918;2023-02-27T10:46:27;4.10;99.90
25050;DHT22;13046;49.814;9.918;2023-02-27T10:48:54;4.20;99.90
25050;DHT22;13046;49.814;9.918;2023-02-27T10:51:24;4.10;99.90
25050;DHT22;13046;49.814;9.918;2023-02-27T10:53:50;4.10;99.90
25050;DHT22;13046;49.814;9.918;2023-02-27T10:56:26;3.80;99.90
25050;DHT22;13046;49.814;9.918;2023-02-27T10:59:04;3.90;99.90
25050;DHT22;13046;49.814;9.918;2023-02-27T11:01:45;4.30;99.90
25050;DHT22;13046;49.814;9.918;2023-02-27T11:04:11;4.20;99.90
25050;DHT22;13046;49.814;9.918;2023-02-27T11:06:39;4.00;99.90
25050;DHT22;13046;49.814;9.918;2023-02-27T11:09:20;3.90;99.90
25050;DHT22;13046;49.814;9.918;2023-02-27T11:11:47;4.00;99.90
25050;DHT22;13046;49.814;9.918;2023-02-27T11:14:25;3.90;99.90
25050;DHT22;13046;49.814;9.918;2023-02-27T11:16:59;4.10;99.90
25050;DHT22;13046;49.814;9.918;2023-02-27T11:19:37;3.60;99.90
25050;DHT22;13046;49.814;9.918;2023-02-27T11:22:09;3.70;99.90
25050;DHT22;13046;49.814;9.918;2023-02-27T11:24:38;3.50;99.90
25050;DHT22;13046;49.814;9.918;2023-02-27T11:27:24;3.40;99.90
25050;DHT22;13046;49.814;9.918;2023-02-27T11:30:02;3.70;99.90
25050;DHT22;13046;49.814;9.918;2023-02-27T11:32:42;3.50;99.90
25050;DHT22;13046;49.814;9.918;2023-02-27T11:35:25;3.80;99.90
25050;DHT22;13046;49.814;9.918;2023-02-27T11:37:53;3.70;99.90
25050;DHT22;13046;49.814;9.918;2023-02-27T11:40:22;3.40;99.90
25050;DHT22;13046;49.814;9.918;2023-02-27T11:42:56;2.60;99.90
25050;DHT22;13046;49.814;9.918;2023-02-27T11:45:34;2.70;99.90
25050;DHT22;13046;49.814;9.918;2023-02-27T11:48:27;2.60;99.90
25050;DHT22;13046;49.814;9.918;2023-02-27T11:54:52;3.20;99.90
25050;DHT22;13046;49.814;9.918;2023-02-27T12:00:22;3.30;99.90
25050;DHT22;13046;49.814;9.918;2023-02-27T12:02:59;3.60;99.90
25050;DHT22;13046;49.814;9.918;2023-02-27T12:05:34;3.90;99.90
25050;DHT22;13046;49.814;9.918;2023-02-27T12:08:15;4.10;99.90
25050;DHT22;13046;49.814;9.918;2023-02-27T12:10:58;4.60;99.90
25050;DHT22;13046;49.814;9.918;2023-02-27T12:13:31;4.70;99.90
25050;DHT22;13046;49.814;9.918;2023-02-27T12:16:11;4.70;99.90
25050;DHT22;13046;49.814;9.918;2023-02-27T12:21:42;4.20;99.90
25050;DHT22;13046;49.814;9.918;2023-02-27T12:24:27;4.10;99.90
25050;DHT22;13046;49.814;9.918;2023-02-27T12:27:20;4.20;99.90
25050;DHT22;13046;49.814;9.918;2023-02-27T12:29:53;4.00;99.90
25050;DHT22;13046;49.814;9.918;2023-02-27T12:32:24;4.50;99.90
25050;DHT22;13046;49.814;9.918;2023-02-27T12:34:55;4.30;99.90
25050;DHT22;13046;49.814;9.918;2023-02-27T12:37:32;4.30;99.90
25050;DHT22;13046;49.814;9.918;2023-02-27T12:40:00;4.20;99.90
25050;DHT22;13046;49.814;9.918;2023-02-27T12:53:46;4.10;99.90
25050;DHT22;13046;49.814;9.918;2023-02-27T12:56:18;3.90;99.90
25050;DHT22;13046;49.814;9.918;2023-02-27T12:59:06;3.50;99.90
25050;DHT22;13046;49.814;9.918;2023-02-27T13:01:45;3.80;99.90
25050;DHT22;13046;49.814;9.918;2023-02-27T13:07:36;4.00;99.90
25050;DHT22;13046;49.814;9.918;2023-02-27T13:16:02;3.90;99.90
25050;DHT22;13046;49.814;9.918;2023-02-27T13:18:37;4.00;99.90
25050;DHT22;13046;49.814;9.918;2023-02-27T13:26:11;4.10;99.90
25050;DHT22;13046;49.814;9.918;2023-02-27T13:28:39;4.10;99.90
25050;DHT22;13046;49.814;9.918;2023-02-27T13:31:06;3.80;99.90
25050;DHT22;13046;49.814;9.918;2023-02-27T13:34:26;3.90;99.90
25050;DHT22;13046;49.814;9.918;2023-02-27T13:36:38;3.90;99.90
25050;DHT22;13046;49.814;9.918;2023-02-27T13:39:38;3.80;99.90
25050;DHT22;13046;49.814;9.918;2023-02-27T13:47:47;3.90;99.90
25050;DHT22;13046;49.814;9.918;2023-02-27T13:52:43;3.50;99.90
25050;DHT22;13046;49.814;9.918;2023-02-27T13:55:28;3.50;99.90
25050;DHT22;13046;49.814;9.918;2023-02-27T13:57:57;3.40;99.90
25050;DHT22;13046;49.814;9.918;2023-02-27T14:00:25;3.40;99.90
25050;DHT22;13046;49.814;9.918;2023-02-27T14:03:04;3.50;99.90
25050;DHT22;13046;49.814;9.918;2023-02-27T14:05:32;3.70;99.90
25050;DHT22;13046;49.814;9.918;2023-02-27T14:08:21;4.00;99.90
25050;DHT22;13046;49.814;9.918;2023-02-27T14:11:11;4.10;99.90
25050;DHT22;13046;49.814;9.918;2023-02-27T14:13:56;4.20;99.90
25050;DHT22;13046;49.814;9.918;2023-02-27T14:24:37;4.30;99.90
25050;DHT22;13046;49.814;9.918;2023-02-27T14:27:24;4.30;99.90
25050;DHT22;13046;49.814;9.918;2023-02-27T14:29:52;4.50;99.90
25050;DHT22;13046;49.814;9.918;2023-02-27T14:32:24;4.90;99.90
25050;DHT22;13046;49.814;9.918;2023-02-27T14:34:53;5.00;99.90
25050;DHT22;13046;49.814;9.918;2023-02-27T14:37:23;4.70;99.90
25050;DHT22;13046;49.814;9.918;2023-02-27T14:39:52;4.90;99.90
25050;DHT22;13046;49.814;9.918;2023-02-27T14:44:47;5.50;99.90
25050;DHT22;13046;49.814;9.918;2023-02-27T14:47:18;5.30;99.90
25050;DHT22;13046;49.814;9.918;2023-02-27T14:49:46;5.20;99.90
25050;DHT22;13046;49.814;9.918;2023-02-27T14:52:27;4.90;99.90
25050;DHT22;13046;49.814;9.918;2023-02-27T14:55:28;4.90;99.90
25050;DHT22;13046;49.814;9.918;2023-02-27T14:58:07;4.90;99.90
25050;DHT22;13046;49.814;9.918;2023-02-27T15:00:37;5.00;99.90
25050;DHT22;13046;49.814;9.918;2023-02-27T15:03:23;5.00;99.90
25050;DHT22;13046;49.814;9.918;2023-02-27T15:05:51;4.90;99.90
25050;DHT22;13046;49.814;9.918;2023-02-27T15:08:21;4.70;99.90
25050;DHT22;13046;49.814;9.918;2023-02-27T15:10:49;4.50;99.90
25050;DHT22;13046;49.814;9.918;2023-02-27T15:26:04;4.30;99.90
25050;DHT22;13046;49.814;9.918;2023-02-27T15:28:35;3.50;99.90
25050;DHT22;13046;49.814;9.918;2023-02-27T15:31:02;3.70;99.90
25050;DHT22;13046;49.814;9.918;2023-02-27T15:33:30;3.90;99.90
25050;DHT22;13046;49.814;9.918;2023-02-27T15:35:57;4.00;99.90
25050;DHT22;13046;49.814;9.918;2023-02-27T15:58:02;4.20;99.90
25050;DHT22;13046;49.814;9.918;2023-02-27T16:00:29;3.30;99.90
25050;DHT22;13046;49.814;9.918;2023-02-27T16:02:57;3.20;99.90
25050;DHT22;13046;49.814;9.918;2023-02-27T16:05:31;3.20;99.90
25050;DHT22;13046;49.814;9.918;2023-02-27T16:07:57;3.10;99.90
25050;DHT22;13046;49.814;9.918;2023-02-27T16:10:27;3.10;99.90
25050;DHT22;13046;49.814;9.918;2023-02-27T16:12:54;3.10;99.90
25050;DHT22;13046;49.814;9.918;2023-02-27T16:15:31;3.00;99.90
25050;DHT22;13046;49.814;9.918;2023-02-27T16:18:22;2.90;99.90
25050;DHT22;13046;49.814;9.918;2023-02-27T16:20:49;2.90;99.90
25050;DHT22;13046;49.814;9.918;2023-02-27T16:35:48;2.70;99.90
25050;DHT22;13046;49.814;9.918;2023-02-27T16:38:15;2.40;99.90
25050;DHT22;13046;49.814;9.918;2023-02-27T16:40:43;2.30;99.90
25050;DHT22;13046;49.814;9.918;2023-02-27T16:43:08;2.30;99.90
25050;DHT22;13046;49.814;9.918;2023-02-27T16:45:34;2.30;99.90
25050;DHT22;13046;49.814;9.918;2023-02-27T16:58:03;2.40;99.90
25050;DHT22;13046;49.814;9.918;2023-02-27T17:00:28;2.50;99.90
25050;DHT22;13046;49.814;9.918;2023-02-27T17:02:54;2.40;99.90
25050;DHT22;13046;49.814;9.918;2023-02-27T17:07:47;2.40;99.90
25050;DHT22;13046;49.814;9.918;2023-02-27T17:10:19;2.20;99.90
25050;DHT22;13046;49.814;9.918;2023-02-27T17:20:05;2.10;99.90
25050;DHT22;13046;49.814;9.918;2023-02-27T17:22:36;2.00;99.90
25050;DHT22;13046;49.814;9.918;2023-02-27T17:25:02;2.00;99.90
25050;DHT22;13046;49.814;9.918;2023-02-27T17:27:28;2.00;99.90
25050;DHT22;13046;49.814;9.918;2023-02-27T17:29:53;1.90;99.90
25050;DHT22;13046;49.814;9.918;2023-02-27T17:34:45;2.00;99.90
